sensor_id;sensor_type;location;lat;lon;timestamp;P1;durP1;ratioP1;P2;durP2;ratioP2
72109;SDS011;59983;52.010;5.420;2022-08-19T00:01:57;5.00;;;4.70;;
72109;SDS011;59983;52.010;5.420;2022-08-19T00:04:30;4.57;;;4.28;;
72109;SDS011;59983;52.010;5.420;2022-08-19T00:06:59;5.18;;;4.72;;
72109;SDS011;59983;52.010;5.420;2022-08-19T00:09:26;4.10;;;3.80;;
72109;SDS011;59983;52.010;5.420;2022-08-19T00:11:54;4.35;;;4.15;;
72109;SDS011;59983;52.010;5.420;2022-08-19T00:14:22;4.43;;;4.13;;
72109;SDS011;59983;52.010;5.420;2022-08-19T00:16:50;3.92;;;3.70;;
72109;SDS011;59983;52.010;5.420;2022-08-19T00:19:20;3.92;;;3.72;;
72109;SDS011;59983;52.010;5.420;2022-08-19T00:21:48;5.55;;;4.50;;
72109;SDS011;59983;52.010;5.420;2022-08-19T00:24:15;4.35;;;3.92;;
72109;SDS011;59983;52.010;5.420;2022-08-19T00:26:42;4.83;;;4.53;;
72109;SDS011;59983;52.010;5.420;2022-08-19T00:29:10;4.80;;;4.45;;
72109;SDS011;59983;52.010;5.420;2022-08-19T00:31:38;5.05;;;4.57;;
72109;SDS011;59983;52.010;5.420;2022-08-19T00:34:06;5.13;;;4.68;;
72109;SDS011;59983;52.010;5.420;2022-08-19T00:36:33;5.72;;;5.25;;
72109;SDS011;59983;52.010;5.420;2022-08-19T00:39:00;5.33;;;5.03;;
72109;SDS011;59983;52.010;5.420;2022-08-19T00:41:26;5.22;;;4.93;;
72109;SDS011;59983;52.010;5.420;2022-08-19T00:46:38;4.43;;;4.22;;
72109;SDS011;59983;52.010;5.420;2022-08-19T00:49:09;4.90;;;4.60;;
72109;SDS011;59983;52.010;5.420;2022-08-19T00:51:40;5.43;;;5.13;;
72109;SDS011;59983;52.010;5.420;2022-08-19T00:54:09;6.45;;;5.95;;
72109;SDS011;59983;52.010;5.420;2022-08-19T00:56:35;6.18;;;5.72;;
72109;SDS011;59983;52.010;5.420;2022-08-19T00:59:03;7.32;;;6.75;;
72109;SDS011;59983;52.010;5.420;2022-08-19T01:01:38;5.93;;;5.55;;
72109;SDS011;59983;52.010;5.420;2022-08-19T01:04:06;7.10;;;6.37;;
72109;SDS011;59983;52.010;5.420;2022-08-19T01:06:35;7.35;;;6.63;;
72109;SDS011;59983;52.010;5.420;2022-08-19T01:09:03;7.05;;;6.55;;
72109;SDS011;59983;52.010;5.420;2022-08-19T01:11:32;7.35;;;5.88;;
72109;SDS011;59983;52.010;5.420;2022-08-19T01:14:01;5.22;;;4.93;;
72109;SDS011;59983;52.010;5.420;2022-08-19T01:16:29;6.10;;;5.80;;
72109;SDS011;59983;52.010;5.420;2022-08-19T01:18:56;6.80;;;4.90;;
72109;SDS011;59983;52.010;5.420;2022-08-19T01:21:38;5.00;;;4.70;;
72109;SDS011;59983;52.010;5.420;2022-08-19T01:24:09;5.10;;;4.75;;
72109;SDS011;59983;52.010;5.420;2022-08-19T01:26:40;4.53;;;4.22;;
72109;SDS011;59983;52.010;5.420;2022-08-19T01:29:09;4.70;;;4.50;;
72109;SDS011;59983;52.010;5.420;2022-08-19T01:31:36;5.53;;;5.13;;
72109;SDS011;59983;52.010;5.420;2022-08-19T01:34:06;6.05;;;5.40;;
72109;SDS011;59983;52.010;5.420;2022-08-19T01:36:37;6.55;;;5.60;;
72109;SDS011;59983;52.010;5.420;2022-08-19T01:39:09;7.10;;;6.70;;
72109;SDS011;59983;52.010;5.420;2022-08-19T01:41:38;7.70;;;7.10;;
72109;SDS011;59983;52.010;5.420;2022-08-19T01:44:06;7.68;;;7.07;;
72109;SDS011;59983;52.010;5.420;2022-08-19T01:46:44;5.70;;;5.32;;
72109;SDS011;59983;52.010;5.420;2022-08-19T01:49:13;4.90;;;4.63;;
72109;SDS011;59983;52.010;5.420;2022-08-19T01:51:41;4.32;;;3.92;;
72109;SDS011;59983;52.010;5.420;2022-08-19T01:54:08;4.00;;;3.70;;
72109;SDS011;59983;52.010;5.420;2022-08-19T01:56:36;4.18;;;3.97;;
72109;SDS011;59983;52.010;5.420;2022-08-19T01:59:06;6.35;;;5.13;;
72109;SDS011;59983;52.010;5.420;2022-08-19T02:01:36;6.47;;;6.07;;
72109;SDS011;59983;52.010;5.420;2022-08-19T02:04:03;6.10;;;5.70;;
72109;SDS011;59983;52.010;5.420;2022-08-19T02:06:31;6.67;;;6.27;;
72109;SDS011;59983;52.010;5.420;2022-08-19T02:08:59;5.70;;;5.38;;
72109;SDS011;59983;52.010;5.420;2022-08-19T02:11:30;6.15;;;5.70;;
72109;SDS011;59983;52.010;5.420;2022-08-19T02:14:03;5.30;;;4.90;;
72109;SDS011;59983;52.010;5.420;2022-08-19T02:16:32;5.43;;;5.10;;
72109;SDS011;59983;52.010;5.420;2022-08-19T02:18:59;5.73;;;5.30;;
72109;SDS011;59983;52.010;5.420;2022-08-19T02:21:28;4.53;;;4.20;;
72109;SDS011;59983;52.010;5.420;2022-08-19T02:23:56;4.60;;;4.40;;
72109;SDS011;59983;52.010;5.420;2022-08-19T02:26:23;4.60;;;4.40;;
72109;SDS011;59983;52.010;5.420;2022-08-19T02:28:50;5.18;;;4.78;;
72109;SDS011;59983;52.010;5.420;2022-08-19T02:31:17;5.80;;;5.30;;
72109;SDS011;59983;52.010;5.420;2022-08-19T02:33:45;5.55;;;5.25;;
72109;SDS011;59983;52.010;5.420;2022-08-19T02:36:13;6.20;;;5.80;;
72109;SDS011;59983;52.010;5.420;2022-08-19T02:38:46;5.85;;;5.53;;
72109;SDS011;59983;52.010;5.420;2022-08-19T02:41:21;6.60;;;6.30;;
72109;SDS011;59983;52.010;5.420;2022-08-19T02:43:52;6.37;;;5.87;;
72109;SDS011;59983;52.010;5.420;2022-08-19T02:46:45;6.25;;;5.63;;
72109;SDS011;59983;52.010;5.420;2022-08-19T02:49:13;6.07;;;5.57;;
72109;SDS011;59983;52.010;5.420;2022-08-19T02:51:43;5.75;;;5.25;;
72109;SDS011;59983;52.010;5.420;2022-08-19T02:54:11;4.72;;;4.43;;
72109;SDS011;59983;52.010;5.420;2022-08-19T02:56:40;6.37;;;5.60;;
72109;SDS011;59983;52.010;5.420;2022-08-19T02:59:08;7.55;;;6.78;;
72109;SDS011;59983;52.010;5.420;2022-08-19T03:01:36;8.13;;;7.40;;
72109;SDS011;59983;52.010;5.420;2022-08-19T03:04:07;7.10;;;6.65;;
72109;SDS011;59983;52.010;5.420;2022-08-19T03:06:40;5.95;;;5.47;;
72109;SDS011;59983;52.010;5.420;2022-08-19T03:09:09;5.90;;;5.40;;
72109;SDS011;59983;52.010;5.420;2022-08-19T03:11:37;7.25;;;6.55;;
72109;SDS011;59983;52.010;5.420;2022-08-19T03:14:04;7.97;;;6.57;;
72109;SDS011;59983;52.010;5.420;2022-08-19T03:16:33;8.77;;;8.02;;
72109;SDS011;59983;52.010;5.420;2022-08-19T03:19:07;7.95;;;7.45;;
72109;SDS011;59983;52.010;5.420;2022-08-19T03:21:34;8.30;;;7.67;;
72109;SDS011;59983;52.010;5.420;2022-08-19T03:24:02;8.68;;;7.97;;
72109;SDS011;59983;52.010;5.420;2022-08-19T03:26:31;8.18;;;7.38;;
72109;SDS011;59983;52.010;5.420;2022-08-19T03:29:01;9.60;;;7.97;;
72109;SDS011;59983;52.010;5.420;2022-08-19T03:31:30;7.03;;;6.43;;
72109;SDS011;59983;52.010;5.420;2022-08-19T03:34:22;7.63;;;6.80;;
72109;SDS011;59983;52.010;5.420;2022-08-19T03:36:53;5.70;;;5.22;;
72109;SDS011;59983;52.010;5.420;2022-08-19T03:39:22;7.97;;;7.22;;
72109;SDS011;59983;52.010;5.420;2022-08-19T03:41:51;8.48;;;7.60;;
72109;SDS011;59983;52.010;5.420;2022-08-19T03:44:42;8.98;;;8.38;;
72109;SDS011;59983;52.010;5.420;2022-08-19T03:47:10;8.43;;;7.70;;
72109;SDS011;59983;52.010;5.420;2022-08-19T03:49:41;9.10;;;8.20;;
72109;SDS011;59983;52.010;5.420;2022-08-19T03:52:08;8.48;;;7.65;;
72109;SDS011;59983;52.010;5.420;2022-08-19T03:54:35;12.00;;;8.95;;
72109;SDS011;59983;52.010;5.420;2022-08-19T03:57:04;8.68;;;8.07;;
72109;SDS011;59983;52.010;5.420;2022-08-19T03:59:32;14.93;;;7.83;;
72109;SDS011;59983;52.010;5.420;2022-08-19T04:02:02;8.60;;;7.90;;
72109;SDS011;59983;52.010;5.420;2022-08-19T04:04:35;7.70;;;7.20;;
72109;SDS011;59983;52.010;5.420;2022-08-19T04:07:03;7.70;;;7.20;;
72109;SDS011;59983;52.010;5.420;2022-08-19T04:09:29;8.82;;;8.13;;
72109;SDS011;59983;52.010;5.420;2022-08-19T04:11:56;8.53;;;7.83;;
72109;SDS011;59983;52.010;5.420;2022-08-19T04:14:24;9.00;;;8.10;;
72109;SDS011;59983;52.010;5.420;2022-08-19T04:16:54;9.18;;;8.23;;
72109;SDS011;59983;52.010;5.420;2022-08-19T04:19:21;9.20;;;8.32;;
72109;SDS011;59983;52.010;5.420;2022-08-19T04:21:50;9.35;;;8.60;;
72109;SDS011;59983;52.010;5.420;2022-08-19T04:24:19;10.33;;;9.63;;
72109;SDS011;59983;52.010;5.420;2022-08-19T04:26:47;10.85;;;9.85;;
72109;SDS011;59983;52.010;5.420;2022-08-19T04:29:15;9.95;;;9.15;;
72109;SDS011;59983;52.010;5.420;2022-08-19T04:31:52;10.80;;;9.77;;
72109;SDS011;59983;52.010;5.420;2022-08-19T04:34:20;9.48;;;8.77;;
72109;SDS011;59983;52.010;5.420;2022-08-19T04:36:49;10.83;;;9.97;;
72109;SDS011;59983;52.010;5.420;2022-08-19T04:39:21;10.77;;;8.45;;
72109;SDS011;59983;52.010;5.420;2022-08-19T04:42:10;9.00;;;8.40;;
72109;SDS011;59983;52.010;5.420;2022-08-19T04:44:56;8.40;;;7.80;;
72109;SDS011;59983;52.010;5.420;2022-08-19T04:47:25;8.88;;;7.88;;
72109;SDS011;59983;52.010;5.420;2022-08-19T04:50:11;9.37;;;8.57;;
72109;SDS011;59983;52.010;5.420;2022-08-19T04:52:38;10.98;;;10.10;;
72109;SDS011;59983;52.010;5.420;2022-08-19T04:55:09;11.73;;;10.73;;
72109;SDS011;59983;52.010;5.420;2022-08-19T04:57:37;13.65;;;12.45;;
72109;SDS011;59983;52.010;5.420;2022-08-19T05:00:07;14.02;;;12.70;;
72109;SDS011;59983;52.010;5.420;2022-08-19T05:02:34;12.67;;;11.47;;
72109;SDS011;59983;52.010;5.420;2022-08-19T05:05:01;13.88;;;11.57;;
72109;SDS011;59983;52.010;5.420;2022-08-19T05:07:29;13.00;;;11.75;;
72109;SDS011;59983;52.010;5.420;2022-08-19T05:09:55;13.80;;;10.85;;
72109;SDS011;59983;52.010;5.420;2022-08-19T05:12:24;10.32;;;9.52;;
72109;SDS011;59983;52.010;5.420;2022-08-19T05:14:54;11.07;;;10.17;;
72109;SDS011;59983;52.010;5.420;2022-08-19T05:17:23;10.57;;;9.75;;
72109;SDS011;59983;52.010;5.420;2022-08-19T05:19:58;8.68;;;8.07;;
72109;SDS011;59983;52.010;5.420;2022-08-19T05:22:44;9.55;;;8.85;;
72109;SDS011;59983;52.010;5.420;2022-08-19T05:25:13;10.18;;;9.20;;
72109;SDS011;59983;52.010;5.420;2022-08-19T05:27:44;9.37;;;8.70;;
72109;SDS011;59983;52.010;5.420;2022-08-19T05:30:11;9.60;;;8.85;;
72109;SDS011;59983;52.010;5.420;2022-08-19T05:32:38;9.70;;;8.90;;
72109;SDS011;59983;52.010;5.420;2022-08-19T05:35:05;10.25;;;9.38;;
72109;SDS011;59983;52.010;5.420;2022-08-19T05:37:32;18.58;;;8.30;;
72109;SDS011;59983;52.010;5.420;2022-08-19T05:39:59;15.93;;;8.67;;
72109;SDS011;59983;52.010;5.420;2022-08-19T05:42:25;11.07;;;9.07;;
72109;SDS011;59983;52.010;5.420;2022-08-19T05:44:52;9.98;;;9.18;;
72109;SDS011;59983;52.010;5.420;2022-08-19T05:47:19;9.63;;;8.93;;
72109;SDS011;59983;52.010;5.420;2022-08-19T05:49:46;8.48;;;7.95;;
72109;SDS011;59983;52.010;5.420;2022-08-19T05:52:15;9.70;;;8.80;;
72109;SDS011;59983;52.010;5.420;2022-08-19T05:54:44;9.57;;;8.98;;
72109;SDS011;59983;52.010;5.420;2022-08-19T05:57:16;8.18;;;7.60;;
72109;SDS011;59983;52.010;5.420;2022-08-19T05:59:45;9.05;;;8.45;;
72109;SDS011;59983;52.010;5.420;2022-08-19T06:02:14;9.60;;;8.90;;
72109;SDS011;59983;52.010;5.420;2022-08-19T06:04:40;9.70;;;9.10;;
72109;SDS011;59983;52.010;5.420;2022-08-19T06:07:10;10.18;;;9.32;;
72109;SDS011;59983;52.010;5.420;2022-08-19T06:09:38;10.75;;;9.70;;
72109;SDS011;59983;52.010;5.420;2022-08-19T06:12:05;15.50;;;11.20;;
72109;SDS011;59983;52.010;5.420;2022-08-19T06:14:33;14.27;;;11.63;;
72109;SDS011;59983;52.010;5.420;2022-08-19T06:17:07;15.57;;;13.80;;
72109;SDS011;59983;52.010;5.420;2022-08-19T06:19:34;15.40;;;13.43;;
72109;SDS011;59983;52.010;5.420;2022-08-19T06:22:05;15.05;;;12.57;;
72109;SDS011;59983;52.010;5.420;2022-08-19T06:24:33;19.90;;;15.90;;
72109;SDS011;59983;52.010;5.420;2022-08-19T06:27:00;27.02;;;18.20;;
72109;SDS011;59983;52.010;5.420;2022-08-19T06:29:27;25.23;;;18.93;;
72109;SDS011;59983;52.010;5.420;2022-08-19T06:31:56;35.25;;;21.95;;
72109;SDS011;59983;52.010;5.420;2022-08-19T06:34:24;31.80;;;21.30;;
72109;SDS011;59983;52.010;5.420;2022-08-19T06:36:54;43.53;;;26.48;;
72109;SDS011;59983;52.010;5.420;2022-08-19T06:39:26;52.20;;;30.75;;
72109;SDS011;59983;52.010;5.420;2022-08-19T06:41:57;54.93;;;34.13;;
72109;SDS011;59983;52.010;5.420;2022-08-19T06:44:26;72.68;;;33.60;;
72109;SDS011;59983;52.010;5.420;2022-08-19T06:46:57;66.32;;;34.22;;
72109;SDS011;59983;52.010;5.420;2022-08-19T06:49:23;68.32;;;35.53;;
72109;SDS011;59983;52.010;5.420;2022-08-19T06:51:53;72.78;;;34.42;;
72109;SDS011;59983;52.010;5.420;2022-08-19T06:54:19;70.10;;;35.77;;
72109;SDS011;59983;52.010;5.420;2022-08-19T06:56:46;75.88;;;36.35;;
72109;SDS011;59983;52.010;5.420;2022-08-19T06:59:15;67.90;;;36.22;;
72109;SDS011;59983;52.010;5.420;2022-08-19T07:01:44;68.13;;;34.67;;
72109;SDS011;59983;52.010;5.420;2022-08-19T07:04:17;77.70;;;35.13;;
72109;SDS011;59983;52.010;5.420;2022-08-19T07:06:45;68.00;;;35.33;;
72109;SDS011;59983;52.010;5.420;2022-08-19T07:09:20;65.95;;;33.85;;
72109;SDS011;59983;52.010;5.420;2022-08-19T07:11:48;69.13;;;34.25;;
72109;SDS011;59983;52.010;5.420;2022-08-19T07:14:17;67.68;;;33.63;;
72109;SDS011;59983;52.010;5.420;2022-08-19T07:16:46;70.60;;;33.25;;
72109;SDS011;59983;52.010;5.420;2022-08-19T07:19:15;59.43;;;31.67;;
72109;SDS011;59983;52.010;5.420;2022-08-19T07:21:44;62.97;;;32.42;;
72109;SDS011;59983;52.010;5.420;2022-08-19T07:24:15;69.00;;;33.03;;
72109;SDS011;59983;52.010;5.420;2022-08-19T07:26:43;65.25;;;35.00;;
72109;SDS011;59983;52.010;5.420;2022-08-19T07:29:10;67.53;;;33.17;;
72109;SDS011;59983;52.010;5.420;2022-08-19T07:31:39;62.43;;;32.73;;
72109;SDS011;59983;52.010;5.420;2022-08-19T07:34:09;65.93;;;32.92;;
72109;SDS011;59983;52.010;5.420;2022-08-19T07:36:40;62.25;;;33.67;;
72109;SDS011;59983;52.010;5.420;2022-08-19T07:39:10;56.15;;;31.52;;
72109;SDS011;59983;52.010;5.420;2022-08-19T07:41:39;58.20;;;32.00;;
72109;SDS011;59983;52.010;5.420;2022-08-19T07:44:07;60.37;;;34.47;;
72109;SDS011;59983;52.010;5.420;2022-08-19T07:46:36;62.88;;;33.72;;
72109;SDS011;59983;52.010;5.420;2022-08-19T07:49:04;55.05;;;32.90;;
72109;SDS011;59983;52.010;5.420;2022-08-19T07:51:33;64.82;;;35.40;;
72109;SDS011;59983;52.010;5.420;2022-08-19T07:54:02;60.03;;;34.28;;
72109;SDS011;59983;52.010;5.420;2022-08-19T07:56:29;61.47;;;32.73;;
72109;SDS011;59983;52.010;5.420;2022-08-19T07:58:56;58.80;;;34.55;;
72109;SDS011;59983;52.010;5.420;2022-08-19T08:01:24;65.00;;;34.70;;
72109;SDS011;59983;52.010;5.420;2022-08-19T08:03:52;59.28;;;34.03;;
72109;SDS011;59983;52.010;5.420;2022-08-19T08:06:39;55.53;;;32.92;;
72109;SDS011;59983;52.010;5.420;2022-08-19T08:09:26;63.47;;;33.33;;
72109;SDS011;59983;52.010;5.420;2022-08-19T08:11:57;57.45;;;33.13;;
72109;SDS011;59983;52.010;5.420;2022-08-19T08:14:32;53.05;;;32.22;;
72109;SDS011;59983;52.010;5.420;2022-08-19T08:17:02;50.65;;;30.25;;
72109;SDS011;59983;52.010;5.420;2022-08-19T08:19:36;68.18;;;32.53;;
72109;SDS011;59983;52.010;5.420;2022-08-19T08:22:03;55.73;;;32.73;;
72109;SDS011;59983;52.010;5.420;2022-08-19T08:24:32;49.35;;;30.88;;
72109;SDS011;59983;52.010;5.420;2022-08-19T08:27:00;52.25;;;30.42;;
72109;SDS011;59983;52.010;5.420;2022-08-19T08:29:27;50.55;;;31.10;;
72109;SDS011;59983;52.010;5.420;2022-08-19T08:32:00;50.95;;;32.22;;
72109;SDS011;59983;52.010;5.420;2022-08-19T08:34:27;53.60;;;31.10;;
72109;SDS011;59983;52.010;5.420;2022-08-19T08:36:54;43.88;;;27.52;;
72109;SDS011;59983;52.010;5.420;2022-08-19T08:39:21;41.67;;;27.00;;
72109;SDS011;59983;52.010;5.420;2022-08-19T08:41:57;38.45;;;26.90;;
72109;SDS011;59983;52.010;5.420;2022-08-19T08:47:15;50.00;;;28.63;;
72109;SDS011;59983;52.010;5.420;2022-08-19T08:49:50;45.72;;;27.95;;
72109;SDS011;59983;52.010;5.420;2022-08-19T08:52:29;43.35;;;26.63;;
72109;SDS011;59983;52.010;5.420;2022-08-19T08:55:06;40.22;;;26.52;;
72109;SDS011;59983;52.010;5.420;2022-08-19T08:57:39;37.67;;;24.95;;
72109;SDS011;59983;52.010;5.420;2022-08-19T09:00:47;38.00;;;24.97;;
72109;SDS011;59983;52.010;5.420;2022-08-19T09:03:19;38.97;;;26.13;;
72109;SDS011;59983;52.010;5.420;2022-08-19T09:05:59;37.55;;;24.08;;
72109;SDS011;59983;52.010;5.420;2022-08-19T09:11:10;36.05;;;25.30;;
72109;SDS011;59983;52.010;5.420;2022-08-19T09:14:07;38.90;;;25.53;;
72109;SDS011;59983;52.010;5.420;2022-08-19T09:17:00;31.35;;;21.45;;
72109;SDS011;59983;52.010;5.420;2022-08-19T09:19:29;35.90;;;22.45;;
72109;SDS011;59983;52.010;5.420;2022-08-19T09:21:57;36.58;;;24.42;;
72109;SDS011;59983;52.010;5.420;2022-08-19T09:24:26;35.92;;;24.38;;
72109;SDS011;59983;52.010;5.420;2022-08-19T09:26:56;34.10;;;23.00;;
72109;SDS011;59983;52.010;5.420;2022-08-19T09:29:23;36.80;;;25.40;;
72109;SDS011;59983;52.010;5.420;2022-08-19T09:31:49;39.70;;;25.00;;
72109;SDS011;59983;52.010;5.420;2022-08-19T09:34:16;37.45;;;25.35;;
72109;SDS011;59983;52.010;5.420;2022-08-19T09:36:47;35.30;;;24.42;;
72109;SDS011;59983;52.010;5.420;2022-08-19T09:39:18;34.90;;;21.27;;
72109;SDS011;59983;52.010;5.420;2022-08-19T09:41:45;26.75;;;19.90;;
72109;SDS011;59983;52.010;5.420;2022-08-19T09:44:14;31.90;;;19.83;;
72109;SDS011;59983;52.010;5.420;2022-08-19T09:46:41;27.08;;;20.13;;
72109;SDS011;59983;52.010;5.420;2022-08-19T09:49:08;28.48;;;20.10;;
72109;SDS011;59983;52.010;5.420;2022-08-19T09:51:34;28.33;;;19.47;;
72109;SDS011;59983;52.010;5.420;2022-08-19T09:54:02;27.52;;;19.33;;
72109;SDS011;59983;52.010;5.420;2022-08-19T09:56:30;33.17;;;21.55;;
72109;SDS011;59983;52.010;5.420;2022-08-19T09:58:59;26.42;;;18.30;;
72109;SDS011;59983;52.010;5.420;2022-08-19T10:01:28;25.17;;;18.15;;
72109;SDS011;59983;52.010;5.420;2022-08-19T10:03:56;26.27;;;20.30;;
72109;SDS011;59983;52.010;5.420;2022-08-19T10:06:26;35.67;;;22.23;;
72109;SDS011;59983;52.010;5.420;2022-08-19T10:09:11;28.42;;;20.95;;
72109;SDS011;59983;52.010;5.420;2022-08-19T10:11:42;34.80;;;22.42;;
72109;SDS011;59983;52.010;5.420;2022-08-19T10:14:19;38.58;;;23.98;;
72109;SDS011;59983;52.010;5.420;2022-08-19T10:16:48;34.47;;;23.30;;
72109;SDS011;59983;52.010;5.420;2022-08-19T10:19:15;36.78;;;23.75;;
72109;SDS011;59983;52.010;5.420;2022-08-19T10:21:51;34.80;;;22.20;;
72109;SDS011;59983;52.010;5.420;2022-08-19T10:24:20;38.33;;;24.13;;
72109;SDS011;59983;52.010;5.420;2022-08-19T10:26:50;34.03;;;21.98;;
72109;SDS011;59983;52.010;5.420;2022-08-19T10:29:24;37.50;;;24.60;;
72109;SDS011;59983;52.010;5.420;2022-08-19T10:31:59;41.05;;;23.90;;
72109;SDS011;59983;52.010;5.420;2022-08-19T10:34:29;34.78;;;24.63;;
72109;SDS011;59983;52.010;5.420;2022-08-19T10:36:56;34.08;;;22.05;;
72109;SDS011;59983;52.010;5.420;2022-08-19T10:39:26;31.52;;;22.50;;
72109;SDS011;59983;52.010;5.420;2022-08-19T10:42:08;33.70;;;24.00;;
72109;SDS011;59983;52.010;5.420;2022-08-19T10:44:39;37.80;;;24.83;;
72109;SDS011;59983;52.010;5.420;2022-08-19T10:47:07;40.08;;;26.15;;
72109;SDS011;59983;52.010;5.420;2022-08-19T10:49:50;33.40;;;23.25;;
72109;SDS011;59983;52.010;5.420;2022-08-19T10:52:38;35.83;;;24.58;;
72109;SDS011;59983;52.010;5.420;2022-08-19T10:55:16;37.43;;;24.50;;
72109;SDS011;59983;52.010;5.420;2022-08-19T10:58:09;38.10;;;26.02;;
72109;SDS011;59983;52.010;5.420;2022-08-19T11:00:40;37.42;;;24.95;;
72109;SDS011;59983;52.010;5.420;2022-08-19T11:03:09;39.42;;;24.92;;
72109;SDS011;59983;52.010;5.420;2022-08-19T11:05:36;39.08;;;26.67;;
72109;SDS011;59983;52.010;5.420;2022-08-19T11:08:05;37.57;;;25.30;;
72109;SDS011;59983;52.010;5.420;2022-08-19T11:10:50;43.03;;;25.00;;
72109;SDS011;59983;52.010;5.420;2022-08-19T11:13:19;44.28;;;25.30;;
72109;SDS011;59983;52.010;5.420;2022-08-19T11:15:46;33.65;;;24.52;;
72109;SDS011;59983;52.010;5.420;2022-08-19T11:18:13;43.33;;;26.00;;
72109;SDS011;59983;52.010;5.420;2022-08-19T11:20:40;42.67;;;25.50;;
72109;SDS011;59983;52.010;5.420;2022-08-19T11:23:06;38.58;;;26.90;;
72109;SDS011;59983;52.010;5.420;2022-08-19T11:25:33;44.63;;;26.80;;
72109;SDS011;59983;52.010;5.420;2022-08-19T11:28:00;36.10;;;24.83;;
72109;SDS011;59983;52.010;5.420;2022-08-19T11:30:27;39.40;;;26.05;;
72109;SDS011;59983;52.010;5.420;2022-08-19T11:32:53;41.03;;;26.83;;
72109;SDS011;59983;52.010;5.420;2022-08-19T11:35:20;45.60;;;29.10;;
72109;SDS011;59983;52.010;5.420;2022-08-19T11:37:47;41.47;;;27.27;;
72109;SDS011;59983;52.010;5.420;2022-08-19T11:40:13;36.08;;;26.70;;
72109;SDS011;59983;52.010;5.420;2022-08-19T11:42:40;46.40;;;29.13;;
72109;SDS011;59983;52.010;5.420;2022-08-19T11:45:23;42.80;;;29.83;;
72109;SDS011;59983;52.010;5.420;2022-08-19T11:47:50;37.90;;;26.75;;
72109;SDS011;59983;52.010;5.420;2022-08-19T11:50:17;46.33;;;27.77;;
72109;SDS011;59983;52.010;5.420;2022-08-19T11:52:45;41.47;;;29.80;;
72109;SDS011;59983;52.010;5.420;2022-08-19T11:55:12;41.72;;;26.95;;
72109;SDS011;59983;52.010;5.420;2022-08-19T11:57:40;44.33;;;28.07;;
72109;SDS011;59983;52.010;5.420;2022-08-19T12:00:07;46.05;;;29.88;;
72109;SDS011;59983;52.010;5.420;2022-08-19T12:02:35;41.08;;;28.05;;
72109;SDS011;59983;52.010;5.420;2022-08-19T12:05:02;39.75;;;27.17;;
72109;SDS011;59983;52.010;5.420;2022-08-19T12:07:32;43.63;;;27.08;;
72109;SDS011;59983;52.010;5.420;2022-08-19T12:10:00;35.50;;;27.27;;
72109;SDS011;59983;52.010;5.420;2022-08-19T12:12:28;39.63;;;25.92;;
72109;SDS011;59983;52.010;5.420;2022-08-19T12:14:55;33.17;;;24.20;;
72109;SDS011;59983;52.010;5.420;2022-08-19T12:17:24;37.70;;;25.80;;
72109;SDS011;59983;52.010;5.420;2022-08-19T12:19:52;27.58;;;22.30;;
72109;SDS011;59983;52.010;5.420;2022-08-19T12:22:19;34.53;;;25.07;;
72109;SDS011;59983;52.010;5.420;2022-08-19T12:24:47;31.38;;;23.92;;
72109;SDS011;59983;52.010;5.420;2022-08-19T12:27:16;30.67;;;23.58;;
72109;SDS011;59983;52.010;5.420;2022-08-19T12:30:01;28.13;;;22.42;;
72109;SDS011;59983;52.010;5.420;2022-08-19T12:32:29;25.83;;;21.98;;
72109;SDS011;59983;52.010;5.420;2022-08-19T12:34:55;25.87;;;21.00;;
72109;SDS011;59983;52.010;5.420;2022-08-19T12:37:22;24.52;;;20.38;;
72109;SDS011;59983;52.010;5.420;2022-08-19T12:39:49;24.25;;;19.15;;
72109;SDS011;59983;52.010;5.420;2022-08-19T12:42:15;23.08;;;18.70;;
72109;SDS011;59983;52.010;5.420;2022-08-19T12:44:44;25.10;;;20.58;;
72109;SDS011;59983;52.010;5.420;2022-08-19T12:47:11;25.10;;;18.20;;
72109;SDS011;59983;52.010;5.420;2022-08-19T12:49:40;22.90;;;16.70;;
72109;SDS011;59983;52.010;5.420;2022-08-19T12:52:20;27.33;;;19.42;;
72109;SDS011;59983;52.010;5.420;2022-08-19T12:54:51;22.05;;;18.55;;
72109;SDS011;59983;52.010;5.420;2022-08-19T12:57:19;24.42;;;19.33;;
72109;SDS011;59983;52.010;5.420;2022-08-19T12:59:51;21.90;;;15.87;;
72109;SDS011;59983;52.010;5.420;2022-08-19T13:02:19;18.75;;;15.73;;
72109;SDS011;59983;52.010;5.420;2022-08-19T13:04:46;19.73;;;15.20;;
72109;SDS011;59983;52.010;5.420;2022-08-19T13:07:13;18.63;;;16.65;;
72109;SDS011;59983;52.010;5.420;2022-08-19T13:09:39;23.90;;;15.40;;
72109;SDS011;59983;52.010;5.420;2022-08-19T13:12:08;19.03;;;16.60;;
72109;SDS011;59983;52.010;5.420;2022-08-19T13:14:39;19.88;;;15.68;;
72109;SDS011;59983;52.010;5.420;2022-08-19T13:17:07;18.85;;;14.98;;
72109;SDS011;59983;52.010;5.420;2022-08-19T13:19:35;20.55;;;15.75;;
72109;SDS011;59983;52.010;5.420;2022-08-19T13:22:03;20.10;;;14.85;;
72109;SDS011;59983;52.010;5.420;2022-08-19T13:24:38;17.23;;;15.03;;
72109;SDS011;59983;52.010;5.420;2022-08-19T13:27:10;21.15;;;15.45;;
72109;SDS011;59983;52.010;5.420;2022-08-19T13:29:36;17.95;;;14.57;;
72109;SDS011;59983;52.010;5.420;2022-08-19T13:32:21;20.00;;;14.18;;
72109;SDS011;59983;52.010;5.420;2022-08-19T13:35:07;17.60;;;15.55;;
72109;SDS011;59983;52.010;5.420;2022-08-19T13:37:34;19.33;;;15.57;;
72109;SDS011;59983;52.010;5.420;2022-08-19T13:40:12;19.55;;;14.55;;
72109;SDS011;59983;52.010;5.420;2022-08-19T13:42:46;16.05;;;14.35;;
72109;SDS011;59983;52.010;5.420;2022-08-19T13:45:15;17.05;;;14.27;;
72109;SDS011;59983;52.010;5.420;2022-08-19T13:47:45;17.45;;;14.73;;
72109;SDS011;59983;52.010;5.420;2022-08-19T13:50:15;13.97;;;12.30;;
72109;SDS011;59983;52.010;5.420;2022-08-19T13:52:43;13.82;;;10.80;;
72109;SDS011;59983;52.010;5.420;2022-08-19T13:55:10;18.88;;;10.68;;
72109;SDS011;59983;52.010;5.420;2022-08-19T13:57:38;20.30;;;12.00;;
72109;SDS011;59983;52.010;5.420;2022-08-19T14:00:06;23.70;;;10.18;;
72109;SDS011;59983;52.010;5.420;2022-08-19T14:02:39;26.90;;;11.80;;
72109;SDS011;59983;52.010;5.420;2022-08-19T14:05:07;19.33;;;11.93;;
72109;SDS011;59983;52.010;5.420;2022-08-19T14:07:35;17.50;;;11.77;;
72109;SDS011;59983;52.010;5.420;2022-08-19T14:10:04;18.73;;;11.07;;
72109;SDS011;59983;52.010;5.420;2022-08-19T14:12:32;17.30;;;12.77;;
72109;SDS011;59983;52.010;5.420;2022-08-19T14:14:59;10.97;;;9.83;;
72109;SDS011;59983;52.010;5.420;2022-08-19T14:17:26;10.30;;;9.30;;
72109;SDS011;59983;52.010;5.420;2022-08-19T14:20:00;13.35;;;12.18;;
72109;SDS011;59983;52.010;5.420;2022-08-19T14:22:37;14.70;;;13.18;;
72109;SDS011;59983;52.010;5.420;2022-08-19T14:25:07;12.85;;;11.40;;
72109;SDS011;59983;52.010;5.420;2022-08-19T14:27:36;14.63;;;13.23;;
72109;SDS011;59983;52.010;5.420;2022-08-19T14:30:05;16.23;;;14.60;;
72109;SDS011;59983;52.010;5.420;2022-08-19T14:32:33;15.55;;;14.15;;
72109;SDS011;59983;52.010;5.420;2022-08-19T14:35:01;16.20;;;14.68;;
72109;SDS011;59983;52.010;5.420;2022-08-19T14:37:28;15.48;;;14.13;;
72109;SDS011;59983;52.010;5.420;2022-08-19T14:39:54;12.77;;;11.77;;
72109;SDS011;59983;52.010;5.420;2022-08-19T14:42:21;13.60;;;12.27;;
72109;SDS011;59983;52.010;5.420;2022-08-19T14:44:47;16.48;;;13.10;;
72109;SDS011;59983;52.010;5.420;2022-08-19T14:47:14;12.25;;;11.35;;
72109;SDS011;59983;52.010;5.420;2022-08-19T14:49:41;12.70;;;11.70;;
72109;SDS011;59983;52.010;5.420;2022-08-19T14:52:13;11.50;;;10.60;;
72109;SDS011;59983;52.010;5.420;2022-08-19T14:54:40;11.60;;;10.63;;
72109;SDS011;59983;52.010;5.420;2022-08-19T14:57:06;10.68;;;9.77;;